sensor_id;sensor_type;location;lat;lon;timestamp;pressure;altitude;pressure_sealevel;temperature;humidity
52291;BME280;39663;45.432;28.050;2023-04-01T00:06:37;100386.36;;;9.53;52.29
52291;BME280;39663;45.432;28.050;2023-04-01T00:07:10;100386.66;;;9.64;52.36
52291;BME280;39663;45.432;28.050;2023-04-01T00:07:42;100388.07;;;9.70;52.28
52291;BME280;39663;45.432;28.050;2023-04-01T00:08:13;100386.07;;;9.71;52.35
52291;BME280;39663;45.432;28.050;2023-04-01T00:08:45;100386.75;;;9.70;52.43
52291;BME280;39663;45.432;28.050;2023-04-01T00:09:17;100384.06;;;9.78;52.51
52291;BME280;39663;45.432;28.050;2023-04-01T00:09:49;100381.31;;;9.52;53.20
52291;BME280;39663;45.432;28.050;2023-04-01T00:10:20;100382.24;;;9.25;53.44
52291;BME280;39663;45.432;28.050;2023-04-01T00:10:52;100379.45;;;9.38;53.54
52291;BME280;39663;45.432;28.050;2023-04-01T00:11:24;100377.64;;;9.50;53.89
52291;BME280;39663;45.432;28.050;2023-04-01T00:11:55;100374.92;;;9.71;54.33
52291;BME280;39663;45.432;28.050;2023-04-01T00:12:27;100375.79;;;10.00;52.41
52291;BME280;39663;45.432;28.050;2023-04-01T00:12:58;100375.29;;;10.00;52.09
52291;BME280;39663;45.432;28.050;2023-04-01T00:13:29;100375.80;;;9.52;52.14
52291;BME280;39663;45.432;28.050;2023-04-01T00:14:01;100374.94;;;9.58;52.36
52291;BME280;39663;45.432;28.050;2023-04-01T00:14:32;100375.56;;;9.28;52.82
52291;BME280;39663;45.432;28.050;2023-04-01T00:15:05;100378.69;;;9.27;52.78
52291;BME280;39663;45.432;28.050;2023-04-01T00:15:37;100379.94;;;9.41;52.42
52291;BME280;39663;45.432;28.050;2023-04-01T00:16:08;100379.73;;;9.70;52.24
52291;BME280;39663;45.432;28.050;2023-04-01T00:16:40;100381.16;;;9.75;52.05
52291;BME280;39663;45.432;28.050;2023-04-01T00:17:11;100380.49;;;9.88;52.03
52291;BME280;39663;45.432;28.050;2023-04-01T00:17:42;100381.72;;;9.72;51.90
52291;BME280;39663;45.432;28.050;2023-04-01T00:18:14;100382.08;;;9.72;51.67
52291;BME280;39663;45.432;28.050;2023-04-01T00:18:46;100379.48;;;9.99;52.50
52291;BME280;39663;45.432;28.050;2023-04-01T00:19:17;100375.01;;;9.73;53.75
52291;BME280;39663;45.432;28.050;2023-04-01T00:19:49;100373.32;;;9.80;53.96
52291;BME280;39663;45.432;28.050;2023-04-01T00:20:21;100372.08;;;10.09;51.97
52291;BME280;39663;45.432;28.050;2023-04-01T00:20:52;100371.48;;;9.80;51.74
52291;BME280;39663;45.432;28.050;2023-04-01T00:21:24;100371.19;;;9.76;51.74
52291;BME280;39663;45.432;28.050;2023-04-01T00:21:55;100371.40;;;9.49;51.66
52291;BME280;39663;45.432;28.050;2023-04-01T00:22:27;100368.04;;;9.66;51.61
52291;BME280;39663;45.432;28.050;2023-04-01T00:22:58;100365.85;;;9.39;51.59
52291;BME280;39663;45.432;28.050;2023-04-01T00:23:30;100365.96;;;9.59;51.51
52291;BME280;39663;45.432;28.050;2023-04-01T00:24:01;100365.72;;;9.72;51.33
52291;BME280;39663;45.432;28.050;2023-04-01T00:24:33;100365.26;;;9.43;51.51
52291;BME280;39663;45.432;28.050;2023-04-01T00:25:05;100364.45;;;9.55;51.36
52291;BME280;39663;45.432;28.050;2023-04-01T00:25:36;100365.57;;;9.84;51.46
52291;BME280;39663;45.432;28.050;2023-04-01T00:26:07;100365.37;;;9.77;51.44
52291;BME280;39663;45.432;28.050;2023-04-01T00:26:39;100365.14;;;9.80;51.34
52291;BME280;39663;45.432;28.050;2023-04-01T00:27:10;100367.37;;;9.60;51.63
52291;BME280;39663;45.432;28.050;2023-04-01T00:27:42;100364.45;;;9.42;51.53
52291;BME280;39663;45.432;28.050;2023-04-01T00:28:13;100362.30;;;9.68;51.68
52291;BME280;39663;45.432;28.050;2023-04-01T00:28:45;100362.64;;;9.52;51.94
52291;BME280;39663;45.432;28.050;2023-04-01T00:29:17;100360.82;;;9.25;52.01
52291;BME280;39663;45.432;28.050;2023-04-01T00:29:48;100359.77;;;9.40;52.21
52291;BME280;39663;45.432;28.050;2023-04-01T00:30:19;100357.77;;;9.28;52.06
52291;BME280;39663;45.432;28.050;2023-04-01T00:30:51;100355.32;;;9.16;52.09
52291;BME280;39663;45.432;28.050;2023-04-01T00:31:22;100355.10;;;9.31;52.42
52291;BME280;39663;45.432;28.050;2023-04-01T00:31:54;100353.13;;;9.14;52.46
52291;BME280;39663;45.432;28.050;2023-04-01T00:32:25;100353.54;;;9.59;51.89
52291;BME280;39663;45.432;28.050;2023-04-01T00:32:57;100351.65;;;9.29;51.54
52291;BME280;39663;45.432;28.050;2023-04-01T00:33:29;100351.65;;;9.43;51.52
52291;BME280;39663;45.432;28.050;2023-04-01T00:34:00;100350.99;;;9.59;51.38
52291;BME280;39663;45.432;28.050;2023-04-01T00:34:31;100350.60;;;9.46;51.42
52291;BME280;39663;45.432;28.050;2023-04-01T00:35:03;100351.52;;;9.29;51.37
52291;BME280;39663;45.432;28.050;2023-04-01T00:35:35;100352.21;;;9.42;51.25
52291;BME280;39663;45.432;28.050;2023-04-01T00:36:08;100353.74;;;9.62;51.25
52291;BME280;39663;45.432;28.050;2023-04-01T00:36:40;100351.07;;;9.37;51.71
52291;BME280;39663;45.432;28.050;2023-04-01T00:37:11;100348.06;;;9.47;51.63
52291;BME280;39663;45.432;28.050;2023-04-01T00:37:43;100347.97;;;9.38;51.94
52291;BME280;39663;45.432;28.050;2023-04-01T00:38:14;100350.20;;;9.15;52.22
52291;BME280;39663;45.432;28.050;2023-04-01T00:38:46;100347.90;;;9.08;52.24
52291;BME280;39663;45.432;28.050;2023-04-01T00:39:18;100346.01;;;9.09;52.55
52291;BME280;39663;45.432;28.050;2023-04-01T00:39:49;100346.21;;;9.25;52.05
52291;BME280;39663;45.432;28.050;2023-04-01T00:40:25;100345.51;;;9.44;51.93
52291;BME280;39663;45.432;28.050;2023-04-01T00:40:58;100344.51;;;9.04;52.09
52291;BME280;39663;45.432;28.050;2023-04-01T00:41:29;100345.02;;;9.25;52.23
52291;BME280;39663;45.432;28.050;2023-04-01T00:42:02;100344.83;;;9.45;52.10
52291;BME280;39663;45.432;28.050;2023-04-01T00:42:33;100344.91;;;9.08;52.55
52291;BME280;39663;45.432;28.050;2023-04-01T00:43:11;100341.97;;;9.20;52.84
52291;BME280;39663;45.432;28.050;2023-04-01T00:43:45;100342.05;;;9.26;52.11
52291;BME280;39663;45.432;28.050;2023-04-01T00:44:19;100342.49;;;9.28;51.63
52291;BME280;39663;45.432;28.050;2023-04-01T00:44:53;100344.37;;;9.79;51.43
52291;BME280;39663;45.432;28.050;2023-04-01T00:45:30;100344.85;;;9.86;51.33
52291;BME280;39663;45.432;28.050;2023-04-01T00:46:01;100345.48;;;9.72;51.13
52291;BME280;39663;45.432;28.050;2023-04-01T00:46:33;100347.71;;;9.73;51.20
52291;BME280;39663;45.432;28.050;2023-04-01T00:47:04;100346.00;;;9.75;51.00
52291;BME280;39663;45.432;28.050;2023-04-01T00:47:36;100345.77;;;9.90;51.15
52291;BME280;39663;45.432;28.050;2023-04-01T00:48:11;100345.06;;;9.67;51.22
52291;BME280;39663;45.432;28.050;2023-04-01T00:48:47;100341.40;;;9.49;51.61
52291;BME280;39663;45.432;28.050;2023-04-01T00:49:21;100337.77;;;9.43;51.74
52291;BME280;39663;45.432;28.050;2023-04-01T00:49:54;100336.79;;;9.50;51.90
52291;BME280;39663;45.432;28.050;2023-04-01T00:50:26;100337.83;;;9.47;52.55
52291;BME280;39663;45.432;28.050;2023-04-01T00:51:03;100335.19;;;9.13;52.56
52291;BME280;39663;45.432;28.050;2023-04-01T00:51:37;100333.77;;;9.34;52.09
52291;BME280;39663;45.432;28.050;2023-04-01T00:52:13;100333.56;;;9.49;52.17
52291;BME280;39663;45.432;28.050;2023-04-01T00:52:45;100331.04;;;9.40;52.12
52291;BME280;39663;45.432;28.050;2023-04-01T00:53:18;100329.14;;;9.42;51.87
52291;BME280;39663;45.432;28.050;2023-04-01T00:53:53;100329.88;;;9.40;52.08
52291;BME280;39663;45.432;28.050;2023-04-01T00:54:25;100328.39;;;9.32;52.10
52291;BME280;39663;45.432;28.050;2023-04-01T00:54:59;100328.53;;;9.29;52.12
52291;BME280;39663;45.432;28.050;2023-04-01T00:55:35;100326.08;;;9.62;51.87
52291;BME280;39663;45.432;28.050;2023-04-01T00:56:11;100323.94;;;9.73;51.71
52291;BME280;39663;45.432;28.050;2023-04-01T00:56:48;100326.14;;;9.67;51.80
52291;BME280;39663;45.432;28.050;2023-04-01T00:57:27;100325.07;;;9.60;51.55
52291;BME280;39663;45.432;28.050;2023-04-01T00:58:03;100323.34;;;9.77;51.38
52291;BME280;39663;45.432;28.050;2023-04-01T00:58:38;100322.93;;;9.84;51.42
52291;BME280;39663;45.432;28.050;2023-04-01T00:59:14;100322.30;;;9.83;51.36
52291;BME280;39663;45.432;28.050;2023-04-01T00:59:49;100320.12;;;9.61;51.81
52291;BME280;39663;45.432;28.050;2023-04-01T01:00:22;100318.93;;;9.36;51.89
52291;BME280;39663;45.432;28.050;2023-04-01T01:00:59;100317.31;;;9.24;51.96
52291;BME280;39663;45.432;28.050;2023-04-01T01:01:32;100316.64;;;8.87;52.69
52291;BME280;39663;45.432;28.050;2023-04-01T01:02:07;100314.08;;;9.21;52.37
52291;BME280;39663;45.432;28.050;2023-04-01T01:02:41;100313.21;;;9.43;52.04
52291;BME280;39663;45.432;28.050;2023-04-01T01:03:14;100314.99;;;9.58;52.07
52291;BME280;39663;45.432;28.050;2023-04-01T01:03:45;100314.06;;;9.52;51.91
52291;BME280;39663;45.432;28.050;2023-04-01T01:04:26;100312.93;;;9.39;52.04
52291;BME280;39663;45.432;28.050;2023-04-01T01:04:58;100313.56;;;9.33;52.06
52291;BME280;39663;45.432;28.050;2023-04-01T01:05:37;100311.56;;;9.57;52.06
52291;BME280;39663;45.432;28.050;2023-04-01T01:06:21;100313.32;;;9.18;52.23
52291;BME280;39663;45.432;28.050;2023-04-01T01:07:04;100310.36;;;9.43;51.81
52291;BME280;39663;45.432;28.050;2023-04-01T01:07:47;100310.90;;;9.84;51.58
52291;BME280;39663;45.432;28.050;2023-04-01T01:08:29;100312.41;;;9.59;51.50
52291;BME280;39663;45.432;28.050;2023-04-01T01:09:19;100315.29;;;9.72;51.78
52291;BME280;39663;45.432;28.050;2023-04-01T01:10:03;100317.24;;;9.26;52.78
52291;BME280;39663;45.432;28.050;2023-04-01T01:10:39;100318.97;;;9.46;52.50
52291;BME280;39663;45.432;28.050;2023-04-01T01:11:11;100319.34;;;9.51;52.33
52291;BME280;39663;45.432;28.050;2023-04-01T01:11:46;100319.76;;;9.43;52.28
52291;BME280;39663;45.432;28.050;2023-04-01T01:12:22;100320.38;;;9.47;52.40
52291;BME280;39663;45.432;28.050;2023-04-01T01:13:01;100317.86;;;9.60;52.48
52291;BME280;39663;45.432;28.050;2023-04-01T01:13:42;100317.50;;;9.49;53.01
52291;BME280;39663;45.432;28.050;2023-04-01T01:14:26;100313.98;;;9.38;52.50
52291;BME280;39663;45.432;28.050;2023-04-01T01:15:10;100313.58;;;8.99;53.23
52291;BME280;39663;45.432;28.050;2023-04-01T01:15:46;100311.84;;;8.82;54.04
52291;BME280;39663;45.432;28.050;2023-04-01T01:16:25;100311.89;;;9.00;53.70
52291;BME280;39663;45.432;28.050;2023-04-01T01:17:04;100307.46;;;9.26;53.16
52291;BME280;39663;45.432;28.050;2023-04-01T01:17:46;100306.83;;;8.93;53.77
52291;BME280;39663;45.432;28.050;2023-04-01T01:18:30;100303.04;;;9.21;53.13
52291;BME280;39663;45.432;28.050;2023-04-01T01:19:17;100302.54;;;9.08;52.87
52291;BME280;39663;45.432;28.050;2023-04-01T01:20:42;100300.14;;;9.35;54.95
52291;BME280;39663;45.432;28.050;2023-04-01T01:21:32;100295.22;;;9.35;52.42
52291;BME280;39663;45.432;28.050;2023-04-01T01:22:22;100295.75;;;9.33;52.42
52291;BME280;39663;45.432;28.050;2023-04-01T01:23:16;100299.65;;;9.40;52.44
52291;BME280;39663;45.432;28.050;2023-04-01T01:24:17;100297.05;;;9.07;53.24
52291;BME280;39663;45.432;28.050;2023-04-01T01:25:01;100295.51;;;9.20;53.65
52291;BME280;39663;45.432;28.050;2023-04-01T01:25:43;100295.80;;;9.41;52.97
52291;BME280;39663;45.432;28.050;2023-04-01T01:26:36;100296.33;;;9.34;52.48
52291;BME280;39663;45.432;28.050;2023-04-01T01:27:10;100295.46;;;9.26;52.21
52291;BME280;39663;45.432;28.050;2023-04-01T01:27:49;100293.14;;;9.47;52.63
52291;BME280;39663;45.432;28.050;2023-04-01T01:28:33;100292.39;;;9.49;52.66
52291;BME280;39663;45.432;28.050;2023-04-01T01:29:29;100292.36;;;9.23;53.90
52291;BME280;39663;45.432;28.050;2023-04-01T01:30:16;100292.98;;;9.14;53.47
52291;BME280;39663;45.432;28.050;2023-04-01T01:30:56;100295.79;;;9.45;52.86
52291;BME280;39663;45.432;28.050;2023-04-01T01:31:36;100297.70;;;9.57;52.55
52291;BME280;39663;45.432;28.050;2023-04-01T01:32:16;100300.79;;;9.67;52.54
52291;BME280;39663;45.432;28.050;2023-04-01T01:33:07;100298.03;;;9.32;52.82
52291;BME280;39663;45.432;28.050;2023-04-01T01:33:52;100301.65;;;9.10;53.43
52291;BME280;39663;45.432;28.050;2023-04-01T01:34:33;100300.42;;;9.45;53.43
52291;BME280;39663;45.432;28.050;2023-04-01T01:35:16;100298.81;;;9.39;53.50
52291;BME280;39663;45.432;28.050;2023-04-01T01:35:52;100298.90;;;9.32;54.06
52291;BME280;39663;45.432;28.050;2023-04-01T01:36:28;100299.30;;;9.25;54.05
52291;BME280;39663;45.432;28.050;2023-04-01T01:37:05;100297.59;;;9.29;53.99
52291;BME280;39663;45.432;28.050;2023-04-01T01:37:39;100298.14;;;9.48;54.01
52291;BME280;39663;45.432;28.050;2023-04-01T01:38:15;100297.32;;;9.39;53.11
52291;BME280;39663;45.432;28.050;2023-04-01T01:38:48;100297.43;;;9.33;53.20
52291;BME280;39663;45.432;28.050;2023-04-01T01:39:23;100297.08;;;9.23;53.38
52291;BME280;39663;45.432;28.050;2023-04-01T01:40:01;100295.44;;;9.28;53.05
52291;BME280;39663;45.432;28.050;2023-04-01T01:40:34;100296.20;;;9.37;52.99
52291;BME280;39663;45.432;28.050;2023-04-01T01:41:08;100297.05;;;9.69;52.49
52291;BME280;39663;45.432;28.050;2023-04-01T01:41:42;100295.00;;;9.73;52.33
52291;BME280;39663;45.432;28.050;2023-04-01T01:42:18;100296.54;;;9.43;53.01
52291;BME280;39663;45.432;28.050;2023-04-01T01:42:53;100294.57;;;9.52;52.91
52291;BME280;39663;45.432;28.050;2023-04-01T01:43:30;100294.13;;;9.51;52.61
52291;BME280;39663;45.432;28.050;2023-04-01T01:44:06;100293.06;;;9.41;52.87
52291;BME280;39663;45.432;28.050;2023-04-01T01:44:38;100291.21;;;9.20;52.58
52291;BME280;39663;45.432;28.050;2023-04-01T01:45:15;100290.36;;;9.60;52.65
52291;BME280;39663;45.432;28.050;2023-04-01T01:45:51;100289.24;;;9.48;52.74
52291;BME280;39663;45.432;28.050;2023-04-01T01:46:25;100288.21;;;9.33;52.75
52291;BME280;39663;45.432;28.050;2023-04-01T01:46:58;100288.57;;;9.20;53.49
52291;BME280;39663;45.432;28.050;2023-04-01T01:47:30;100285.71;;;9.39;53.56
52291;BME280;39663;45.432;28.050;2023-04-01T01:48:03;100283.91;;;9.11;53.97
52291;BME280;39663;45.432;28.050;2023-04-01T01:48:36;100280.00;;;9.04;53.05
52291;BME280;39663;45.432;28.050;2023-04-01T01:49:11;100278.01;;;9.04;53.15
52291;BME280;39663;45.432;28.050;2023-04-01T01:49:44;100275.18;;;8.99;53.59
52291;BME280;39663;45.432;28.050;2023-04-01T01:50:17;100274.34;;;9.13;53.16
52291;BME280;39663;45.432;28.050;2023-04-01T01:50:50;100272.40;;;9.36;52.82
52291;BME280;39663;45.432;28.050;2023-04-01T01:51:23;100271.36;;;9.35;53.16
52291;BME280;39663;45.432;28.050;2023-04-01T01:51:55;100269.27;;;8.80;53.38
52291;BME280;39663;45.432;28.050;2023-04-01T01:52:27;100268.82;;;9.20;53.40
52291;BME280;39663;45.432;28.050;2023-04-01T01:53:02;100268.05;;;9.25;53.02
52291;BME280;39663;45.432;28.050;2023-04-01T01:53:34;100266.96;;;9.53;52.79
52291;BME280;39663;45.432;28.050;2023-04-01T01:54:05;100265.59;;;9.32;52.71
52291;BME280;39663;45.432;28.050;2023-04-01T01:54:46;100264.65;;;9.34;52.59
52291;BME280;39663;45.432;28.050;2023-04-01T01:55:27;100266.02;;;9.43;52.90
52291;BME280;39663;45.432;28.050;2023-04-01T01:55:59;100267.78;;;9.43;52.63
52291;BME280;39663;45.432;28.050;2023-04-01T01:56:31;100269.25;;;9.24;52.95
52291;BME280;39663;45.432;28.050;2023-04-01T01:57:06;100267.84;;;9.27;53.40
52291;BME280;39663;45.432;28.050;2023-04-01T01:57:38;100269.39;;;9.32;53.97
52291;BME280;39663;45.432;28.050;2023-04-01T01:58:13;100268.49;;;9.25;54.38
52291;BME280;39663;45.432;28.050;2023-04-01T01:58:50;100268.50;;;9.31;53.57
52291;BME280;39663;45.432;28.050;2023-04-01T01:59:25;100270.23;;;9.34;54.38
52291;BME280;39663;45.432;28.050;2023-04-01T02:00:03;100269.02;;;9.52;54.12
52291;BME280;39663;45.432;28.050;2023-04-01T02:00:37;100270.47;;;9.45;53.25
52291;BME280;39663;45.432;28.050;2023-04-01T02:01:12;100272.11;;;9.42;53.11
52291;BME280;39663;45.432;28.050;2023-04-01T02:01:48;100273.64;;;9.68;52.96
52291;BME280;39663;45.432;28.050;2023-04-01T02:02:22;100274.27;;;9.31;52.60
52291;BME280;39663;45.432;28.050;2023-04-01T02:02:54;100274.58;;;9.64;52.51
52291;BME280;39663;45.432;28.050;2023-04-01T02:03:28;100273.22;;;9.32;52.57
52291;BME280;39663;45.432;28.050;2023-04-01T02:04:01;100273.35;;;9.19;53.35
52291;BME280;39663;45.432;28.050;2023-04-01T02:04:34;100272.35;;;9.53;52.88
52291;BME280;39663;45.432;28.050;2023-04-01T02:05:08;100270.86;;;9.58;52.56
52291;BME280;39663;45.432;28.050;2023-04-01T02:05:42;100269.20;;;9.69;52.56
52291;BME280;39663;45.432;28.050;2023-04-01T02:06:18;100268.64;;;9.11;53.51
52291;BME280;39663;45.432;28.050;2023-04-01T02:06:55;100266.81;;;8.69;54.12
52291;BME280;39663;45.432;28.050;2023-04-01T02:07:32;100263.23;;;8.91;53.62
52291;BME280;39663;45.432;28.050;2023-04-01T02:08:08;100261.95;;;9.41;53.41
52291;BME280;39663;45.432;28.050;2023-04-01T02:08:45;100261.93;;;9.01;53.63
52291;BME280;39663;45.432;28.050;2023-04-01T02:09:18;100261.50;;;9.19;53.18
52291;BME280;39663;45.432;28.050;2023-04-01T02:09:49;100261.53;;;9.38;53.21
52291;BME280;39663;45.432;28.050;2023-04-01T02:10:23;100261.81;;;9.06;53.12
52291;BME280;39663;45.432;28.050;2023-04-01T02:11:00;100261.20;;;9.59;53.23
52291;BME280;39663;45.432;28.050;2023-04-01T02:11:35;100262.63;;;9.39;53.22
52291;BME280;39663;45.432;28.050;2023-04-01T02:12:12;100260.75;;;9.60;53.18
52291;BME280;39663;45.432;28.050;2023-04-01T02:12:46;100260.52;;;9.12;53.39
52291;BME280;39663;45.432;28.050;2023-04-01T02:13:21;100257.85;;;9.39;53.59
52291;BME280;39663;45.432;28.050;2023-04-01T02:14:03;100255.20;;;9.47;53.71
52291;BME280;39663;45.432;28.050;2023-04-01T02:14:41;100254.77;;;9.37;53.98
52291;BME280;39663;45.432;28.050;2023-04-01T02:15:15;100251.99;;;8.91;55.34
52291;BME280;39663;45.432;28.050;2023-04-01T02:15:49;100251.03;;;9.02;54.33
52291;BME280;39663;45.432;28.050;2023-04-01T02:16:27;100249.72;;;9.11;54.56
52291;BME280;39663;45.432;28.050;2023-04-01T02:17:03;100249.33;;;8.88;54.89
52291;BME280;39663;45.432;28.050;2023-04-01T02:17:39;100251.76;;;9.16;54.45
52291;BME280;39663;45.432;28.050;2023-04-01T02:18:13;100252.28;;;9.30;54.54
52291;BME280;39663;45.432;28.050;2023-04-01T02:18:49;100252.27;;;9.43;54.17
52291;BME280;39663;45.432;28.050;2023-04-01T02:19:22;100253.92;;;9.53;53.77
52291;BME280;39663;45.432;28.050;2023-04-01T02:19:58;100253.46;;;9.54;53.56
52291;BME280;39663;45.432;28.050;2023-04-01T02:20:31;100253.37;;;9.50;53.74
52291;BME280;39663;45.432;28.050;2023-04-01T02:21:04;100254.27;;;9.56;53.63
52291;BME280;39663;45.432;28.050;2023-04-01T02:21:37;100254.53;;;9.61;53.62
52291;BME280;39663;45.432;28.050;2023-04-01T02:22:13;100256.93;;;8.96;54.14
52291;BME280;39663;45.432;28.050;2023-04-01T02:22:49;100256.01;;;9.05;54.58
52291;BME280;39663;45.432;28.050;2023-04-01T02:23:22;100254.83;;;9.14;54.52
52291;BME280;39663;45.432;28.050;2023-04-01T02:23:54;100256.39;;;8.98;54.96
52291;BME280;39663;45.432;28.050;2023-04-01T02:24:28;100256.59;;;9.25;54.52
52291;BME280;39663;45.432;28.050;2023-04-01T02:25:06;100256.69;;;9.27;54.54
52291;BME280;39663;45.432;28.050;2023-04-01T02:25:39;100255.06;;;9.10;55.57
52291;BME280;39663;45.432;28.050;2023-04-01T02:26:13;100256.07;;;8.92;55.41
52291;BME280;39663;45.432;28.050;2023-04-01T02:26:45;100255.32;;;9.18;54.68
52291;BME280;39663;45.432;28.050;2023-04-01T02:27:17;100257.59;;;9.18;54.29
52291;BME280;39663;45.432;28.050;2023-04-01T02:27:50;100257.28;;;9.45;54.14
52291;BME280;39663;45.432;28.050;2023-04-01T02:28:23;100258.29;;;8.90;54.43
52291;BME280;39663;45.432;28.050;2023-04-01T02:28:56;100255.66;;;9.34;54.32
52291;BME280;39663;45.432;28.050;2023-04-01T02:29:31;100257.06;;;9.34;54.50
52291;BME280;39663;45.432;28.050;2023-04-01T02:30:03;100255.46;;;9.37;54.40
52291;BME280;39663;45.432;28.050;2023-04-01T02:30:37;100253.45;;;9.46;54.41
52291;BME280;39663;45.432;28.050;2023-04-01T02:31:11;100254.71;;;9.24;55.10
52291;BME280;39663;45.432;28.050;2023-04-01T02:31:44;100252.72;;;8.64;56.07
52291;BME280;39663;45.432;28.050;2023-04-01T02:32:17;100255.95;;;8.38;56.60
52291;BME280;39663;45.432;28.050;2023-04-01T02:32:50;100252.73;;;8.60;56.70
52291;BME280;39663;45.432;28.050;2023-04-01T02:33:22;100254.47;;;8.33;57.05
52291;BME280;39663;45.432;28.050;2023-04-01T02:33:54;100252.74;;;8.88;56.09
52291;BME280;39663;45.432;28.050;2023-04-01T02:34:26;100252.86;;;9.17;55.50
52291;BME280;39663;45.432;28.050;2023-04-01T02:34:58;100253.72;;;9.20;55.32
52291;BME280;39663;45.432;28.050;2023-04-01T02:35:29;100253.62;;;9.52;54.95
52291;BME280;39663;45.432;28.050;2023-04-01T02:36:01;100253.85;;;9.13;55.20
52291;BME280;39663;45.432;28.050;2023-04-01T02:36:35;100253.00;;;9.12;55.53
52291;BME280;39663;45.432;28.050;2023-04-01T02:37:07;100254.70;;;9.09;55.45
52291;BME280;39663;45.432;28.050;2023-04-01T02:37:39;100253.62;;;9.27;55.13
52291;BME280;39663;45.432;28.050;2023-04-01T02:38:11;100252.12;;;9.31;55.03
52291;BME280;39663;45.432;28.050;2023-04-01T02:38:44;100252.66;;;9.17;55.37
52291;BME280;39663;45.432;28.050;2023-04-01T02:39:16;100250.07;;;8.64;56.47
52291;BME280;39663;45.432;28.050;2023-04-01T02:39:48;100251.31;;;8.96;55.88
52291;BME280;39663;45.432;28.050;2023-04-01T02:40:20;100250.07;;;8.91;55.97
52291;BME280;39663;45.432;28.050;2023-04-01T02:40:58;100248.49;;;8.92;56.03
52291;BME280;39663;45.432;28.050;2023-04-01T02:41:30;100247.42;;;8.62;56.68
52291;BME280;39663;45.432;28.050;2023-04-01T02:42:02;100246.35;;;9.09;55.95
52291;BME280;39663;45.432;28.050;2023-04-01T02:42:33;100248.29;;;9.01;55.60
52291;BME280;39663;45.432;28.050;2023-04-01T02:43:05;100247.77;;;8.87;55.87
52291;BME280;39663;45.432;28.050;2023-04-01T02:43:37;100247.37;;;9.01;56.28
52291;BME280;39663;45.432;28.050;2023-04-01T02:44:09;100246.74;;;8.98;55.91
52291;BME280;39663;45.432;28.050;2023-04-01T02:44:40;100247.50;;;8.82;55.98
52291;BME280;39663;45.432;28.050;2023-04-01T02:45:13;100248.80;;;8.94;56.41
52291;BME280;39663;45.432;28.050;2023-04-01T02:45:44;100247.15;;;8.84;55.81
52291;BME280;39663;45.432;28.050;2023-04-01T02:46:16;100247.91;;;8.62;56.29
52291;BME280;39663;45.432;28.050;2023-04-01T02:46:47;100248.06;;;8.46;56.74
52291;BME280;39663;45.432;28.050;2023-04-01T02:47:19;100247.56;;;8.60;56.49
52291;BME280;39663;45.432;28.050;2023-04-01T02:47:50;100247.69;;;8.62;56.34
52291;BME280;39663;45.432;28.050;2023-04-01T02:48:22;100245.14;;;8.41;56.27
52291;BME280;39663;45.432;28.050;2023-04-01T02:48:53;100245.81;;;8.84;55.77
52291;BME280;39663;45.432;28.050;2023-04-01T02:49:24;100244.51;;;8.91;55.67
52291;BME280;39663;45.432;28.050;2023-04-01T02:49:56;100244.92;;;8.93;55.64
52291;BME280;39663;45.432;28.050;2023-04-01T02:50:27;100243.01;;;9.09;55.27
52291;BME280;39663;45.432;28.050;2023-04-01T02:50:59;100243.95;;;8.79;55.90
52291;BME280;39663;45.432;28.050;2023-04-01T02:51:31;100242.70;;;8.67;56.17
52291;BME280;39663;45.432;28.050;2023-04-01T02:52:02;100242.68;;;8.12;57.19
52291;BME280;39663;45.432;28.050;2023-04-01T02:52:34;100242.74;;;7.87;57.79
52291;BME280;39663;45.432;28.050;2023-04-01T02:53:06;100241.65;;;7.85;58.04
52291;BME280;39663;45.432;28.050;2023-04-01T02:53:37;100247.65;;;7.70;58.25
52291;BME280;39663;45.432;28.050;2023-04-01T02:54:08;100244.26;;;7.73;58.26
52291;BME280;39663;45.432;28.050;2023-04-01T02:54:40;100240.26;;;8.42;56.94
52291;BME280;39663;45.432;28.050;2023-04-01T02:55:11;100239.79;;;8.66;56.27
52291;BME280;39663;45.432;28.050;2023-04-01T02:55:43;100239.78;;;8.64;56.08
52291;BME280;39663;45.432;28.050;2023-04-01T02:56:14;100241.78;;;8.58;56.23
52291;BME280;39663;45.432;28.050;2023-04-01T02:56:46;100239.01;;;8.52;56.43
52291;BME280;39663;45.432;28.050;2023-04-01T02:57:17;100238.95;;;9.01;55.71
52291;BME280;39663;45.432;28.050;2023-04-01T02:57:48;100239.94;;;8.94;55.42
52291;BME280;39663;45.432;28.050;2023-04-01T02:58:20;100237.91;;;9.07;55.04
52291;BME280;39663;45.432;28.050;2023-04-01T02:58:52;100238.78;;;9.30;54.85
52291;BME280;39663;45.432;28.050;2023-04-01T02:59:23;100239.31;;;8.93;54.88
52291;BME280;39663;45.432;28.050;2023-04-01T02:59:54;100237.31;;;9.00;54.75
52291;BME280;39663;45.432;28.050;2023-04-01T03:00:26;100238.08;;;9.32;54.76
52291;BME280;39663;45.432;28.050;2023-04-01T03:00:58;100239.25;;;9.15;54.69
52291;BME280;39663;45.432;28.050;2023-04-01T03:01:29;100238.00;;;9.01;54.93
52291;BME280;39663;45.432;28.050;2023-04-01T03:02:00;100238.14;;;9.11;54.83
52291;BME280;39663;45.432;28.050;2023-04-01T03:02:32;100240.54;;;9.18;54.53
52291;BME280;39663;45.432;28.050;2023-04-01T03:03:03;100241.42;;;9.23;54.49
52291;BME280;39663;45.432;28.050;2023-04-01T03:03:35;100244.83;;;9.23;54.44
52291;BME280;39663;45.432;28.050;2023-04-01T03:04:06;100245.52;;;9.09;54.45
52291;BME280;39663;45.432;28.050;2023-04-01T03:04:38;100244.52;;;9.28;54.41
52291;BME280;39663;45.432;28.050;2023-04-01T03:05:09;100246.49;;;8.73;55.32
52291;BME280;39663;45.432;28.050;2023-04-01T03:05:40;100249.03;;;8.92;55.28
52291;BME280;39663;45.432;28.050;2023-04-01T03:06:14;100247.63;;;9.08;54.79
52291;BME280;39663;45.432;28.050;2023-04-01T03:06:46;100246.61;;;9.36;54.65
52291;BME280;39663;45.432;28.050;2023-04-01T03:07:17;100244.89;;;8.96;54.98